createdAt,value
2018-09-24T00:01:32.708Z,18.47
2018-09-24T00:04:01.396Z,18.37
2018-09-24T00:06:30.184Z,18.33
2018-09-24T00:08:58.867Z,18.49
2018-09-24T00:11:27.653Z,18.21
2018-09-24T00:13:56.378Z,17.92
2018-09-24T00:16:25.195Z,18.00
2018-09-24T00:18:53.905Z,18.14
2018-09-24T00:21:22.654Z,18.02
2018-09-24T00:23:51.391Z,18.25
2018-09-24T00:26:20.435Z,18.39
2018-09-24T00:28:49.127Z,18.37
2018-09-24T00:31:17.888Z,18.35
2018-09-24T00:33:46.646Z,18.45
2018-09-24T00:36:15.425Z,18.27
2018-09-24T00:38:44.293Z,18.34
2018-09-24T00:41:13.116Z,17.95
2018-09-24T00:43:41.915Z,18.09
2018-09-24T00:46:10.966Z,18.23
2018-09-24T00:48:39.689Z,18.09
2018-09-24T00:51:08.420Z,18.16
2018-09-24T00:53:37.505Z,17.94
2018-09-24T00:56:06.352Z,18.01
2018-09-24T00:58:35.121Z,18.14
2018-09-24T01:01:03.932Z,17.63
2018-09-24T01:03:35.329Z,17.65
2018-09-24T01:06:04.215Z,17.78
2018-09-24T01:08:33.006Z,17.66
2018-09-24T01:11:01.768Z,17.94
2018-09-24T01:13:30.455Z,18.14
2018-09-24T01:15:59.223Z,18.18
2018-09-24T01:18:28.060Z,18.26
2018-09-24T01:20:56.787Z,18.31
2018-09-24T01:23:25.481Z,18.16
2018-09-24T01:25:54.315Z,17.85
2018-09-24T01:28:23.036Z,17.92
2018-09-24T01:30:51.731Z,17.69
2018-09-24T01:33:20.487Z,17.71
2018-09-24T01:35:49.172Z,17.44
2018-09-24T01:38:17.954Z,17.48
2018-09-24T01:40:46.736Z,17.63
2018-09-24T01:43:15.535Z,17.43
2018-09-24T01:45:44.327Z,17.48
2018-09-24T01:48:13.057Z,17.16
2018-09-24T01:50:41.799Z,17.30
2018-09-24T01:53:10.581Z,17.10
2018-09-24T01:55:39.339Z,17.07
2018-09-24T01:58:08.069Z,17.17
2018-09-24T02:00:36.824Z,17.26
2018-09-24T02:03:05.706Z,17.16
2018-09-24T02:05:34.377Z,16.86
2018-09-24T02:08:03.039Z,17.03
2018-09-24T02:10:31.793Z,17.01
2018-09-24T02:13:00.542Z,17.10
2018-09-24T02:15:31.011Z,17.22
2018-09-24T02:17:59.967Z,17.13
2018-09-24T02:20:29.017Z,17.14
2018-09-24T02:22:57.780Z,16.89
2018-09-24T02:25:26.544Z,16.62
2018-09-24T02:27:55.363Z,16.79
2018-09-24T02:30:24.094Z,17.02
2018-09-24T02:32:52.772Z,16.72
2018-09-24T02:35:21.565Z,16.75
2018-09-24T02:37:50.312Z,17.06
2018-09-24T02:40:21.458Z,16.98
2018-09-24T02:42:50.359Z,17.08
2018-09-24T02:45:19.237Z,17.08
2018-09-24T02:47:47.961Z,17.25
2018-09-24T02:50:16.652Z,17.35
2018-09-24T02:52:45.478Z,17.11
2018-09-24T02:55:17.835Z,17.04
2018-09-24T02:57:46.729Z,17.12
2018-09-24T03:00:21.165Z,16.83
2018-09-24T03:02:50.146Z,16.54
2018-09-24T03:05:18.787Z,16.46
2018-09-24T03:07:47.612Z,16.73
2018-09-24T03:10:16.402Z,16.85
2018-09-24T03:12:50.069Z,16.92
2018-09-24T03:15:19.069Z,17.16
2018-09-24T03:17:47.785Z,17.00
2018-09-24T03:20:16.544Z,16.55
2018-09-24T03:22:45.284Z,16.52
2018-09-24T03:25:18.351Z,16.75
2018-09-24T03:27:47.626Z,16.53
2018-09-24T03:30:16.722Z,16.43
2018-09-24T03:32:45.445Z,16.45
2018-09-24T03:35:14.216Z,15.14
2018-09-24T03:37:42.913Z,16.14
2018-09-24T03:40:11.657Z,16.16
2018-09-24T03:42:40.391Z,15.94
2018-09-24T03:45:09.176Z,16.00
2018-09-24T03:47:37.933Z,15.77
2018-09-24T03:50:06.775Z,15.98
2018-09-24T03:52:35.456Z,16.19
2018-09-24T03:55:04.292Z,16.25
2018-09-24T03:57:33.029Z,16.21
2018-09-24T04:00:01.820Z,16.21
2018-09-24T04:02:30.536Z,15.97
2018-09-24T04:05:04.429Z,15.93
2018-09-24T04:07:38.292Z,16.14
2018-09-24T04:10:12.532Z,16.23
2018-09-24T04:12:46.592Z,16.02
2018-09-24T04:15:20.616Z,16.22
2018-09-24T04:17:54.609Z,16.55
2018-09-24T04:20:28.488Z,16.69
2018-09-24T04:23:02.424Z,16.72
2018-09-24T04:25:36.375Z,16.75
2018-09-24T04:28:10.199Z,16.84
2018-09-24T04:30:44.043Z,16.85
2018-09-24T04:33:18.040Z,16.91
2018-09-24T04:35:51.841Z,17.21
2018-09-24T04:38:25.696Z,17.62
2018-09-24T04:40:59.660Z,17.99
2018-09-24T04:43:33.756Z,18.02
2018-09-24T04:46:07.569Z,18.26
2018-09-24T04:48:41.494Z,18.56
2018-09-24T04:51:15.459Z,18.40
2018-09-24T04:53:49.415Z,18.56
2018-09-24T04:56:23.359Z,19.02
2018-09-24T04:58:57.249Z,19.16
2018-09-24T05:01:31.169Z,19.10
2018-09-24T05:04:04.995Z,19.21
2018-09-24T05:06:38.841Z,19.37
2018-09-24T05:09:13.980Z,19.46
2018-09-24T05:11:47.903Z,19.57
2018-09-24T05:14:21.973Z,19.66
2018-09-24T05:16:55.832Z,20.08
2018-09-24T05:19:29.815Z,20.12
2018-09-24T05:22:03.735Z,20.43
2018-09-24T05:24:37.732Z,20.62
2018-09-24T05:27:11.688Z,20.84
2018-09-24T05:29:45.561Z,20.97
2018-09-24T05:32:19.398Z,20.81
2018-09-24T05:34:53.148Z,20.82
2018-09-24T05:37:27.016Z,21.18
2018-09-24T05:40:00.906Z,21.22
2018-09-24T05:42:34.871Z,21.14
2018-09-24T05:45:08.855Z,21.40
2018-09-24T05:47:42.751Z,21.67
2018-09-24T05:50:16.590Z,21.38
2018-09-24T05:52:50.436Z,21.64
2018-09-24T05:55:24.365Z,22.31
2018-09-24T05:57:58.320Z,22.50
2018-09-24T06:00:32.267Z,22.86
2018-09-24T06:03:06.228Z,22.86
2018-09-24T06:05:40.076Z,22.90
2018-09-24T06:08:14.064Z,22.67
2018-09-24T06:10:48.036Z,22.64
2018-09-24T06:13:21.925Z,22.75
2018-09-24T06:15:55.870Z,22.63
2018-09-24T06:18:29.777Z,22.41
2018-09-24T06:21:03.740Z,22.25
2018-09-24T06:23:37.620Z,22.39
2018-09-24T06:26:11.681Z,22.77
2018-09-24T06:28:45.386Z,23.09
2018-09-24T06:31:19.216Z,23.15
2018-09-24T06:33:53.053Z,23.40
2018-09-24T06:36:26.972Z,23.59
2018-09-24T06:39:00.829Z,23.94
2018-09-24T06:41:34.729Z,24.05
2018-09-24T06:44:08.621Z,23.84
2018-09-24T06:46:42.479Z,23.38
2018-09-24T06:49:16.399Z,23.60
2018-09-24T06:51:50.210Z,23.97
2018-09-24T06:54:23.972Z,23.32
2018-09-24T06:56:57.877Z,23.06
2018-09-24T06:59:31.863Z,23.69
2018-09-24T07:02:05.806Z,23.90
2018-09-24T07:04:39.581Z,23.85
2018-09-24T07:07:13.632Z,24.28
2018-09-24T07:09:47.439Z,24.66
2018-09-24T07:12:21.322Z,24.72
2018-09-24T07:14:55.323Z,25.18
2018-09-24T07:17:29.228Z,25.40
2018-09-24T07:20:03.087Z,25.63
2018-09-24T07:22:36.864Z,26.00
2018-09-24T07:25:10.939Z,25.95
2018-09-24T07:27:44.775Z,26.46
2018-09-24T07:30:18.681Z,26.35
2018-09-24T07:32:52.616Z,26.54
2018-09-24T07:35:26.539Z,26.91
2018-09-24T07:38:00.319Z,27.18
2018-09-24T07:40:34.087Z,27.23
2018-09-24T07:43:07.997Z,26.26
2018-09-24T07:45:41.928Z,26.11
2018-09-24T07:48:20.101Z,26.32
2018-09-24T07:50:53.991Z,26.68
2018-09-24T07:53:27.848Z,27.74
2018-09-24T07:56:01.800Z,27.43
2018-09-24T07:58:35.645Z,27.12
2018-09-24T08:01:09.510Z,26.66
2018-09-24T08:03:43.382Z,27.18
2018-09-24T08:06:17.385Z,27.37
2018-09-24T08:08:51.066Z,26.85
2018-09-24T08:11:36.461Z,24.53
2018-09-24T08:14:10.472Z,27.93
2018-09-24T08:16:44.309Z,28.38
2018-09-24T08:19:18.238Z,28.70
2018-09-24T08:21:52.260Z,28.58
2018-09-24T08:24:26.207Z,28.40
2018-09-24T08:27:00.264Z,28.11
2018-09-24T08:29:34.185Z,28.70
2018-09-24T08:32:12.298Z,29.36
2018-09-24T08:34:51.126Z,29.71
2018-09-24T08:37:32.016Z,29.07
2018-09-24T08:40:06.480Z,29.27
2018-09-24T08:42:40.377Z,29.73
2018-09-24T08:45:17.484Z,29.76
2018-09-24T08:47:51.228Z,29.53
2018-09-24T08:50:25.172Z,29.65
2018-09-24T08:52:59.083Z,29.75
2018-09-24T08:55:33.105Z,29.75
2018-09-24T08:58:07.045Z,30.12
2018-09-24T09:00:40.978Z,30.25
2018-09-24T09:03:14.873Z,30.65
2018-09-24T09:05:48.871Z,31.08
2018-09-24T09:08:22.732Z,30.95
2018-09-24T09:10:56.793Z,30.92
2018-09-24T09:13:30.819Z,31.24
2018-09-24T09:16:04.664Z,31.15
2018-09-24T09:18:39.006Z,31.08
2018-09-24T09:21:12.945Z,30.95
2018-09-24T09:23:46.879Z,31.24
2018-09-24T09:26:20.777Z,31.44
2018-09-24T09:28:54.700Z,31.76
2018-09-24T09:31:28.735Z,32.04
2018-09-24T09:34:02.702Z,31.93
2018-09-24T09:36:36.701Z,31.55
2018-09-24T09:39:13.286Z,31.30
2018-09-24T09:41:57.228Z,31.41
2018-09-24T09:44:31.611Z,32.03
2018-09-24T09:47:06.930Z,31.90
2018-09-24T09:49:40.719Z,31.67
2018-09-24T09:52:14.675Z,31.49
2018-09-24T09:54:48.571Z,31.95
2018-09-24T09:57:22.483Z,32.68
2018-09-24T09:59:56.517Z,33.05
2018-09-24T10:02:38.414Z,32.88
2018-09-24T10:05:12.526Z,32.87
2018-09-24T10:07:46.442Z,31.28
2018-09-24T10:10:20.312Z,31.66
2018-09-24T10:12:54.349Z,32.18
2018-09-24T10:15:28.300Z,32.15
2018-09-24T10:18:02.171Z,31.53
2018-09-24T10:20:36.447Z,31.23
2018-09-24T10:23:10.326Z,31.06
2018-09-24T10:25:44.397Z,31.11
2018-09-24T10:28:18.322Z,30.25
2018-09-24T10:30:52.277Z,29.48
2018-09-24T10:33:26.265Z,29.20
2018-09-24T10:36:00.267Z,29.00
2018-09-24T10:38:34.083Z,29.03
2018-09-24T10:41:08.580Z,30.84
2018-09-24T10:43:42.415Z,32.06
2018-09-24T10:46:17.112Z,32.74
2018-09-24T10:48:50.847Z,33.26
2018-09-24T10:51:25.940Z,31.73
2018-09-24T10:54:06.203Z,31.07
2018-09-24T10:56:39.940Z,30.57
2018-09-24T10:59:13.808Z,30.01
2018-09-24T11:01:47.685Z,31.57
2018-09-24T11:04:21.709Z,32.60
2018-09-24T11:06:55.705Z,33.01
2018-09-24T11:09:30.642Z,33.02
2018-09-24T11:12:04.488Z,32.81
2018-09-24T11:14:38.404Z,31.74
2018-09-24T11:17:12.663Z,32.07
2018-09-24T11:19:47.268Z,31.87
2018-09-24T11:22:23.778Z,32.58
2018-09-24T11:25:06.937Z,32.74
2018-09-24T11:27:40.823Z,32.96
2018-09-24T11:30:36.379Z,33.24
2018-09-24T11:33:13.094Z,33.21
2018-09-24T11:35:56.299Z,31.95
2018-09-24T11:38:30.297Z,30.69
2018-09-24T11:41:04.542Z,29.65
2018-09-24T11:43:44.033Z,28.88
2018-09-24T11:46:18.041Z,28.26
2018-09-24T11:48:52.102Z,27.84
2018-09-24T11:51:34.604Z,27.57
2018-09-24T11:54:26.914Z,27.36
2018-09-24T11:57:03.767Z,27.31
2018-09-24T11:59:39.086Z,26.74
2018-09-24T12:02:16.349Z,26.04
2018-09-24T12:04:53.703Z,25.38
2018-09-24T12:07:30.196Z,25.41
2018-09-24T12:10:04.171Z,24.94
2018-09-24T12:12:38.080Z,24.79
2018-09-24T12:15:16.029Z,24.49
2018-09-24T12:17:50.132Z,24.08
2018-09-24T12:20:37.900Z,23.83
2018-09-24T12:23:11.885Z,23.37
2018-09-24T12:25:45.825Z,23.36
2018-09-24T12:28:21.523Z,23.65
2018-09-24T12:30:55.692Z,23.05
2018-09-24T12:33:29.525Z,22.97
2018-09-24T12:36:03.403Z,22.73
2018-09-24T12:38:37.308Z,23.05
2018-09-24T12:41:11.287Z,22.56
2018-09-24T12:43:46.292Z,21.92
2018-09-24T12:46:22.559Z,21.58
2018-09-24T12:48:56.474Z,21.92
2018-09-24T12:51:30.391Z,22.15
2018-09-24T12:54:04.336Z,21.88
2018-09-24T12:56:38.204Z,21.55
2018-09-24T12:59:12.140Z,21.13
2018-09-24T13:01:46.099Z,20.92
2018-09-24T13:04:20.210Z,20.24
2018-09-24T13:07:00.841Z,19.83
2018-09-24T13:09:34.828Z,20.07
2018-09-24T13:12:08.763Z,19.83
2018-09-24T13:14:42.749Z,19.51
2018-09-24T13:17:16.731Z,19.47
2018-09-24T13:19:50.679Z,19.14
2018-09-24T13:22:24.519Z,18.93
2018-09-24T13:24:58.441Z,18.86
2018-09-24T13:27:32.287Z,18.92
2018-09-24T13:30:06.293Z,18.72
2018-09-24T13:32:40.271Z,18.50
2018-09-24T13:35:14.190Z,18.34
2018-09-24T13:37:48.177Z,17.99
2018-09-24T13:40:22.215Z,18.05
2018-09-24T13:42:56.140Z,18.06
2018-09-24T13:45:30.039Z,17.91
2018-09-24T13:48:03.945Z,16.61
2018-09-24T13:53:47.709Z,17.62
2018-09-24T13:56:30.946Z,17.70
2018-09-24T13:59:11.682Z,17.54
2018-09-24T14:01:45.789Z,17.39
2018-09-24T14:04:19.860Z,17.10
2018-09-24T14:06:53.894Z,17.05
2018-09-24T14:09:52.147Z,16.80
2018-09-24T14:12:26.050Z,16.75
2018-09-24T14:14:59.989Z,16.47
2018-09-24T14:17:53.061Z,16.28
2018-09-24T14:20:27.035Z,16.15
2018-09-24T14:23:00.934Z,16.08
2018-09-24T14:25:53.430Z,16.24
2018-09-24T14:28:50.893Z,16.30
2018-09-24T14:45:54.125Z,15.82
2018-09-24T14:48:41.016Z,15.68
2018-09-24T14:51:15.198Z,15.46
2018-09-24T14:57:00.627Z,15.25
2018-09-24T14:59:50.243Z,15.35
2018-09-24T15:02:26.063Z,10.92
2018-09-24T15:05:02.774Z,15.26
2018-09-24T15:07:40.268Z,15.22
2018-09-24T15:10:14.227Z,14.98
2018-09-24T15:12:48.167Z,14.89
2018-09-24T15:15:22.028Z,14.93
2018-09-24T15:18:23.325Z,14.94
2018-09-24T15:20:57.132Z,14.90
2018-09-24T15:23:31.234Z,14.89
2018-09-24T15:26:05.206Z,14.71
2018-09-24T15:28:39.030Z,14.77
2018-09-24T15:31:12.883Z,14.63
2018-09-24T15:33:56.950Z,14.64
2018-09-24T15:36:40.965Z,14.73
2018-09-24T15:39:14.830Z,14.62
2018-09-24T15:41:48.676Z,14.58
2018-09-24T15:44:22.441Z,13.99
2018-09-24T15:47:04.555Z,14.34
2018-09-24T15:49:38.496Z,14.25
2018-09-24T15:52:12.421Z,14.17
2018-09-24T15:54:46.471Z,14.09
2018-09-24T15:57:20.956Z,13.99
2018-09-24T15:59:54.818Z,13.87
2018-09-24T16:02:28.692Z,13.83
2018-09-24T16:05:02.625Z,13.79
2018-09-24T16:07:36.439Z,12.61
2018-09-24T16:10:11.382Z,13.79
2018-09-24T16:12:53.015Z,13.62
2018-09-24T16:15:26.944Z,13.65
2018-09-24T16:18:03.949Z,13.63
2018-09-24T16:20:37.948Z,13.52
2018-09-24T16:23:12.134Z,13.44
2018-09-24T16:25:46.150Z,13.46
2018-09-24T16:28:21.593Z,13.38
2018-09-24T16:30:55.607Z,13.30
2018-09-24T16:33:29.512Z,13.25
2018-09-24T16:36:03.547Z,13.13
2018-09-24T16:38:37.559Z,13.04
2018-09-24T16:41:11.555Z,12.98
2018-09-24T16:43:46.690Z,12.93
2018-09-24T16:46:20.698Z,12.88
2018-09-24T16:48:54.629Z,12.81
2018-09-24T16:51:28.611Z,12.75
2018-09-24T16:54:02.523Z,12.66
2018-09-24T16:56:36.557Z,12.71
2018-09-24T16:59:10.660Z,12.68
2018-09-24T17:01:44.721Z,12.68
2018-09-24T17:04:18.702Z,12.62
2018-09-24T17:06:52.467Z,12.61
2018-09-24T17:09:26.415Z,12.60
2018-09-24T17:12:00.474Z,12.64
2018-09-24T17:14:34.366Z,12.61
2018-09-24T17:17:08.367Z,12.54
2018-09-24T17:19:42.398Z,12.54
2018-09-24T17:22:16.273Z,11.93
2018-09-24T17:24:50.247Z,12.31
2018-09-24T17:27:24.102Z,12.25
2018-09-24T17:29:57.996Z,12.25
2018-09-24T17:32:31.916Z,12.20
2018-09-24T17:35:05.840Z,12.23
2018-09-24T17:37:39.822Z,12.19
2018-09-24T17:40:13.641Z,12.22
2018-09-24T17:42:47.502Z,12.05
2018-09-24T17:45:21.392Z,11.98
2018-09-24T17:47:55.217Z,11.92
2018-09-24T17:50:29.108Z,11.97
2018-09-24T17:53:03.224Z,12.00
2018-09-24T17:55:37.043Z,12.04
2018-09-24T17:58:10.913Z,12.00
2018-09-24T18:00:44.828Z,12.05
2018-09-24T18:03:18.820Z,12.00
2018-09-24T18:05:52.578Z,11.95
2018-09-24T18:08:26.513Z,12.04
2018-09-24T18:11:00.461Z,11.96
2018-09-24T18:13:34.369Z,11.89
2018-09-24T18:16:08.227Z,11.84
2018-09-24T18:18:42.335Z,11.81
2018-09-24T18:21:16.188Z,11.80
2018-09-24T18:23:50.233Z,11.89
2018-09-24T18:26:24.124Z,11.96
2018-09-24T18:28:57.977Z,11.85
2018-09-24T18:31:31.777Z,11.84
2018-09-24T18:34:05.803Z,11.83
2018-09-24T18:36:39.829Z,11.79
2018-09-24T18:39:14.778Z,11.73
2018-09-24T18:41:48.745Z,11.71
2018-09-24T18:44:22.876Z,11.78
2018-09-24T18:46:56.712Z,11.69
2018-09-24T18:49:30.708Z,11.61
2018-09-24T18:52:04.584Z,11.54
2018-09-24T18:54:38.572Z,11.62
2018-09-24T18:57:12.473Z,11.64
2018-09-24T18:59:46.297Z,11.64
2018-09-24T19:02:20.117Z,11.61
2018-09-24T19:04:54.140Z,11.56
2018-09-24T19:07:28.173Z,11.50
2018-09-24T19:10:02.024Z,11.45
2018-09-24T19:12:35.958Z,11.39
2018-09-24T19:15:09.838Z,11.32
2018-09-24T19:17:43.757Z,11.32
2018-09-24T19:20:17.536Z,11.34
2018-09-24T19:22:51.525Z,11.26
2018-09-24T19:25:25.311Z,11.29
2018-09-24T19:27:59.209Z,11.23
2018-09-24T19:30:33.140Z,11.13
2018-09-24T19:33:07.051Z,11.15
2018-09-24T19:35:40.971Z,11.13
2018-09-24T19:38:14.865Z,11.15
2018-09-24T19:40:48.860Z,11.19
2018-09-24T19:43:22.678Z,11.09
2018-09-24T19:45:56.841Z,11.12
2018-09-24T19:48:30.749Z,11.12
2018-09-24T19:51:04.656Z,11.21
2018-09-24T19:53:38.993Z,11.12
2018-09-24T19:56:12.879Z,11.12
2018-09-24T19:58:46.827Z,11.20
2018-09-24T20:01:20.769Z,11.26
2018-09-24T20:03:54.705Z,11.12
2018-09-24T20:06:28.684Z,11.07
2018-09-24T20:09:02.669Z,11.00
2018-09-24T20:11:36.485Z,10.92
2018-09-24T20:14:10.372Z,10.74
2018-09-24T20:16:44.352Z,10.67
2018-09-24T20:19:18.134Z,10.52
2018-09-24T20:21:51.998Z,10.38
2018-09-24T20:24:25.861Z,10.18
2018-09-24T20:26:59.721Z,10.05
2018-09-24T20:29:33.710Z,9.98
2018-09-24T20:32:07.477Z,9.84
2018-09-24T20:34:41.448Z,9.75
2018-09-24T20:37:15.338Z,9.71
2018-09-24T20:39:49.346Z,9.69
2018-09-24T20:42:23.280Z,9.70
2018-09-24T20:44:57.222Z,9.60
2018-09-24T20:47:31.631Z,9.57
2018-09-24T20:50:05.554Z,9.50
2018-09-24T20:52:39.626Z,9.39
2018-09-24T20:55:13.539Z,9.40
2018-09-24T20:57:47.384Z,9.38
2018-09-24T21:00:21.398Z,9.29
2018-09-24T21:02:55.236Z,9.26
2018-09-24T21:05:29.126Z,9.26
2018-09-24T21:08:03.048Z,9.26
2018-09-24T21:10:36.977Z,9.27
2018-09-24T21:13:11.118Z,9.30
2018-09-24T21:15:44.971Z,9.32
2018-09-24T21:18:18.925Z,9.29
2018-09-24T21:20:52.902Z,9.30
2018-09-24T21:23:26.759Z,9.22
2018-09-24T21:26:00.724Z,9.26
2018-09-24T21:28:34.664Z,9.27
2018-09-24T21:31:09.565Z,9.24
2018-09-24T21:33:43.358Z,9.27
2018-09-24T21:36:17.358Z,9.27
2018-09-24T21:38:51.164Z,9.23
2018-09-24T21:41:25.092Z,9.22
2018-09-24T21:43:59.087Z,9.27
2018-09-24T21:46:33.112Z,9.21
2018-09-24T21:49:06.918Z,9.34
2018-09-24T21:51:40.691Z,9.37
2018-09-24T21:54:14.681Z,9.29
2018-09-24T21:56:48.609Z,9.26
2018-09-24T21:59:22.298Z,9.25
2018-09-24T22:01:56.141Z,9.24
2018-09-24T22:04:30.148Z,9.23
2018-09-24T22:07:03.969Z,9.22
2018-09-24T22:09:37.858Z,9.32
2018-09-24T22:12:11.803Z,9.41
2018-09-24T22:14:45.645Z,9.37
2018-09-24T22:17:19.546Z,9.29
2018-09-24T22:19:53.405Z,9.23
2018-09-24T22:22:27.283Z,9.17
2018-09-24T22:25:01.235Z,9.11
2018-09-24T22:27:35.072Z,9.10
2018-09-24T22:30:09.127Z,9.14
2018-09-24T22:32:43.031Z,9.22
2018-09-24T22:35:16.974Z,9.16
2018-09-24T22:37:50.816Z,9.09
2018-09-24T22:40:24.533Z,9.09
2018-09-24T22:42:58.392Z,9.11
2018-09-24T22:45:32.324Z,9.22
2018-09-24T22:48:06.208Z,9.12
2018-09-24T22:50:40.120Z,9.07
2018-09-24T22:53:14.024Z,9.00
2018-09-24T22:55:48.000Z,9.10
2018-09-24T22:58:21.830Z,9.25
2018-09-24T23:00:55.771Z,9.25
2018-09-24T23:03:29.751Z,9.20
2018-09-24T23:06:03.631Z,9.26
2018-09-24T23:08:37.484Z,9.21
2018-09-24T23:11:11.686Z,9.29
2018-09-24T23:13:45.378Z,9.27
2018-09-24T23:16:19.384Z,9.28
2018-09-24T23:18:53.274Z,9.19
2018-09-24T23:21:27.021Z,9.16
2018-09-24T23:24:00.852Z,9.23
2018-09-24T23:26:34.725Z,9.27
2018-09-24T23:29:08.741Z,9.31
2018-09-24T23:31:42.627Z,9.12
2018-09-24T23:34:16.465Z,9.16
2018-09-24T23:36:50.399Z,9.13
2018-09-24T23:39:24.135Z,9.15
2018-09-24T23:41:58.126Z,9.15
2018-09-24T23:44:32.008Z,9.14
2018-09-24T23:47:05.797Z,9.15
2018-09-24T23:49:39.614Z,9.19
2018-09-24T23:52:13.550Z,9.24
2018-09-24T23:54:47.312Z,9.26
2018-09-24T23:57:21.323Z,9.20
2018-09-24T23:59:55.049Z,9.15
